createdAt,value
2019-02-12T05:03:43.177Z,0
2019-02-12T05:07:11.076Z,0
2019-02-12T05:10:38.979Z,0
2019-02-12T05:14:06.858Z,0
2019-02-12T05:17:34.758Z,0
2019-02-12T05:21:02.654Z,0
2019-02-12T05:24:30.539Z,0
2019-02-12T05:27:58.436Z,0
2019-02-12T05:31:27.327Z,0
2019-02-12T05:34:56.203Z,0
2019-02-12T05:38:24.136Z,0
2019-02-12T05:41:52.046Z,0
2019-02-12T05:45:19.952Z,0
2019-02-12T05:48:47.889Z,0
2019-02-12T05:52:16.764Z,0
2019-02-12T05:55:44.659Z,0
2019-02-12T05:59:12.543Z,0
2019-02-12T06:02:40.433Z,0
2019-02-12T06:06:08.334Z,0
2019-02-12T06:09:36.230Z,0
2019-02-12T06:13:04.148Z,0
2019-02-12T06:16:32.029Z,0
2019-02-12T06:19:59.955Z,0
2019-02-12T06:23:28.839Z,0
2019-02-12T06:26:56.737Z,0
2019-02-12T06:30:24.637Z,0
2019-02-12T06:33:52.537Z,5.625
2019-02-12T06:37:20.455Z,5.625
2019-02-12T06:40:48.340Z,5.625
2019-02-12T06:44:17.222Z,11.25
2019-02-12T06:47:45.134Z,11.25
2019-02-12T06:51:13.031Z,16.875
2019-02-12T06:54:40.933Z,16.875
2019-02-12T06:58:08.832Z,22.5
2019-02-12T07:01:37.715Z,28.125
2019-02-12T07:05:06.589Z,28.125
2019-02-12T07:08:34.490Z,28.125
2019-02-12T07:12:03.385Z,33.75
2019-02-12T07:15:32.275Z,39.375
2019-02-12T07:19:01.165Z,33.75
2019-02-12T07:22:29.063Z,33.75
2019-02-12T07:25:57.934Z,33.75
2019-02-12T07:29:26.827Z,39.375
2019-02-12T07:32:55.714Z,39.375
2019-02-12T07:36:23.944Z,50.625
2019-02-12T07:39:51.830Z,56.25
2019-02-12T07:43:19.729Z,56.25
2019-02-12T07:46:47.632Z,56.25
2019-02-12T07:50:15.515Z,61.875
2019-02-12T07:53:44.410Z,61.875
2019-02-12T07:57:13.322Z,67.5
2019-02-12T08:00:41.223Z,67.5
2019-02-12T08:04:09.110Z,73.125
2019-02-12T08:07:37.025Z,73.125
2019-02-12T08:11:04.923Z,73.125
2019-02-12T08:14:32.805Z,78.75
2019-02-12T08:18:00.728Z,78.75
2019-02-12T08:21:28.613Z,78.75
2019-02-12T08:24:56.507Z,78.75
2019-02-12T08:28:24.427Z,84.375
2019-02-12T08:31:52.336Z,84.375
2019-02-12T08:35:21.317Z,84.375
2019-02-12T08:38:49.216Z,90
2019-02-12T08:42:17.132Z,90
2019-02-12T08:45:45.039Z,95.625
2019-02-12T08:49:12.961Z,95.625
2019-02-12T08:52:40.883Z,95.625
2019-02-12T08:56:08.794Z,95.625
2019-02-12T08:59:36.714Z,101.25
2019-02-12T09:03:04.661Z,101.25
2019-02-12T09:06:32.542Z,106.875
2019-02-12T09:10:01.442Z,106.875
2019-02-12T09:13:29.359Z,106.875
2019-02-12T09:16:57.250Z,112.5
2019-02-12T09:20:25.141Z,112.5
2019-02-12T09:24:00.327Z,112.5
2019-02-12T09:27:25.916Z,118.125
2019-02-12T09:30:53.767Z,123.75
2019-02-12T09:34:22.672Z,118.125
2019-02-12T09:37:50.733Z,118.125
2019-02-12T09:41:18.601Z,123.75
2019-02-12T09:44:47.496Z,123.75
2019-02-12T09:48:15.388Z,129.375
2019-02-12T09:51:43.262Z,129.375
2019-02-12T09:55:11.160Z,135
2019-02-12T09:58:39.064Z,140.625
2019-02-12T10:02:06.946Z,140.625
2019-02-12T10:05:34.826Z,146.25
2019-02-12T10:09:02.881Z,168.75
2019-02-12T10:12:30.767Z,157.5
2019-02-12T10:15:58.649Z,157.5
2019-02-12T10:19:26.531Z,151.875
2019-02-12T10:22:54.480Z,157.5
2019-02-12T10:26:22.301Z,163.125
2019-02-12T10:29:50.183Z,208.125
2019-02-12T10:33:19.051Z,208.125
2019-02-12T10:36:46.934Z,247.5
2019-02-12T10:40:15.825Z,247.5
2019-02-12T10:43:43.706Z,253.125
2019-02-12T10:47:12.584Z,258.75
2019-02-12T10:50:40.555Z,225
2019-02-12T10:54:08.477Z,236.25
2019-02-12T10:57:38.343Z,365.625
2019-02-12T11:01:06.235Z,826.875
2019-02-12T11:04:35.108Z,843.75
2019-02-12T11:08:02.991Z,309.375
2019-02-12T11:11:30.925Z,410.625
2019-02-12T11:14:58.798Z,556.875
2019-02-12T11:18:27.702Z,343.125
2019-02-12T11:21:56.581Z,1383.75
2019-02-12T11:25:24.477Z,1642.5
2019-02-12T11:28:52.474Z,1591.875
2019-02-12T11:32:20.346Z,1912.5
2019-02-12T11:35:49.240Z,1935
2019-02-12T11:39:17.250Z,2109.375
2019-02-12T11:42:45.836Z,1985.625
2019-02-12T11:46:13.737Z,1996.875
2019-02-12T11:49:41.711Z,2295
2019-02-12T11:53:09.595Z,2216.25
2019-02-12T11:56:38.410Z,2430
2019-02-12T12:00:06.302Z,2486.25
2019-02-12T12:03:34.211Z,2593.125
2019-02-12T12:07:02.123Z,2610
2019-02-12T12:10:30.122Z,1805.625
2019-02-12T12:13:59.024Z,2531.25
2019-02-12T12:17:26.936Z,2604.375
2019-02-12T12:20:54.838Z,2435.625
2019-02-12T12:24:22.738Z,2435.625
2019-02-12T12:27:50.683Z,2278.125
2019-02-12T12:31:18.584Z,1749.375
2019-02-12T12:34:47.463Z,2958.75
2019-02-12T12:38:15.363Z,1507.5
2019-02-12T12:41:44.873Z,2700
2019-02-12T12:45:12.775Z,1575
2019-02-12T12:48:41.710Z,2047.5
2019-02-12T12:52:09.648Z,1468.125
2019-02-12T12:55:37.560Z,3279.375
2019-02-12T12:59:05.480Z,3183.75
2019-02-12T13:02:34.366Z,2525.625
2019-02-12T13:06:02.418Z,3082.5
2019-02-12T13:09:31.374Z,1372.5
2019-02-12T13:12:59.298Z,2739.375
2019-02-12T13:16:27.570Z,2671.875
2019-02-12T13:19:55.483Z,2075.625
2019-02-12T13:23:23.400Z,2576.25
2019-02-12T13:26:51.328Z,2626.875
2019-02-12T13:30:19.250Z,945
2019-02-12T13:33:47.217Z,2626.875
2019-02-12T13:37:16.119Z,2716.875
2019-02-12T13:40:44.009Z,2610
2019-02-12T13:44:11.951Z,2621.25
2019-02-12T13:47:39.913Z,2632.5
2019-02-12T13:51:07.851Z,2435.625
2019-02-12T13:54:36.807Z,1963.125
2019-02-12T13:58:04.762Z,1968.75
2019-02-12T14:01:33.253Z,1996.875
2019-02-12T14:05:01.215Z,2373.75
2019-02-12T14:08:29.137Z,2520
2019-02-12T14:11:57.028Z,2418.75
2019-02-12T14:15:24.959Z,939.375
2019-02-12T14:18:52.897Z,495
2019-02-12T14:22:21.794Z,292.5
2019-02-12T14:25:49.735Z,264.375
2019-02-12T14:29:17.645Z,253.125
2019-02-12T14:32:45.533Z,247.5
2019-02-12T14:36:13.438Z,230.625
2019-02-12T14:39:41.438Z,219.375
2019-02-12T14:43:14.001Z,236.25
2019-02-12T14:46:41.369Z,196.875
2019-02-12T14:50:09.430Z,208.125
2019-02-12T14:53:37.407Z,202.5
2019-02-12T14:57:06.515Z,180
2019-02-12T15:00:35.497Z,168.75
2019-02-12T15:04:03.435Z,163.125
2019-02-12T15:07:31.421Z,168.75
2019-02-12T15:10:59.509Z,157.5
2019-02-12T15:14:27.587Z,151.875
2019-02-12T15:17:55.694Z,135
2019-02-12T15:21:23.599Z,118.125
2019-02-12T15:24:51.536Z,106.875
2019-02-12T15:28:19.439Z,90
2019-02-12T15:31:47.404Z,84.375
2019-02-12T15:35:15.371Z,78.75
2019-02-12T15:38:43.322Z,73.125
2019-02-12T15:42:11.265Z,56.25
2019-02-12T15:45:39.372Z,45
2019-02-12T15:49:07.773Z,39.375
2019-02-12T15:52:35.968Z,39.375
2019-02-12T15:56:04.256Z,33.75
2019-02-12T15:59:35.296Z,22.5
2019-02-12T16:03:03.549Z,16.875
2019-02-12T16:06:31.668Z,11.25
2019-02-12T16:10:00.723Z,5.625
2019-02-12T16:13:28.773Z,5.625
2019-02-12T16:16:57.794Z,5.625
2019-02-12T16:20:25.907Z,0
2019-02-12T16:23:54.987Z,0
2019-02-12T16:27:23.116Z,0
2019-02-12T16:30:51.192Z,0
2019-02-12T16:34:19.149Z,0
2019-02-12T16:37:48.407Z,0
2019-02-12T16:41:16.814Z,0
2019-02-12T16:44:45.117Z,0
2019-02-12T16:48:13.225Z,0
2019-02-12T16:51:41.426Z,0
2019-02-12T16:55:10.483Z,0
2019-02-12T16:58:38.519Z,0
2019-02-12T17:02:06.414Z,0
2019-02-12T17:05:34.312Z,0
2019-02-12T17:09:02.214Z,0
2019-02-12T17:12:30.113Z,0
2019-02-12T17:15:58.012Z,0
2019-02-12T17:19:25.918Z,0
2019-02-12T17:22:53.820Z,0
2019-02-12T17:26:21.731Z,0
2019-02-12T17:29:49.615Z,0
2019-02-12T17:33:18.517Z,0
2019-02-12T17:36:46.449Z,0
2019-02-12T17:40:14.330Z,0
2019-02-12T17:43:42.274Z,0
2019-02-12T17:47:10.504Z,0
2019-02-12T17:50:38.725Z,0
2019-02-12T17:54:06.885Z,0
2019-02-12T17:57:35.938Z,0
2019-02-12T18:01:03.919Z,0
2019-02-12T18:04:32.011Z,0
2019-02-12T18:08:00.305Z,0
2019-02-12T18:11:28.262Z,0
2019-02-12T18:14:56.256Z,0
2019-02-12T18:18:26.439Z,0
2019-02-12T18:21:54.553Z,0
2019-02-12T18:25:23.653Z,0
2019-02-12T18:28:51.543Z,0
2019-02-12T18:32:20.631Z,0
2019-02-12T18:35:48.550Z,0
2019-02-12T18:39:16.460Z,0
2019-02-12T18:42:44.353Z,0
2019-02-12T18:46:12.266Z,0
2019-02-12T18:49:40.245Z,0
2019-02-12T18:53:08.150Z,0
2019-02-12T18:56:41.555Z,0
2019-02-12T19:00:08.472Z,0
2019-02-12T19:03:36.637Z,0
2019-02-12T19:07:04.730Z,0
2019-02-12T19:10:33.843Z,0
2019-02-12T19:14:01.924Z,0
2019-02-12T19:17:30.839Z,0
2019-02-12T19:20:59.737Z,0
2019-02-12T19:24:27.677Z,0
2019-02-12T19:27:55.647Z,0
2019-02-12T19:31:23.520Z,0
2019-02-12T19:34:51.435Z,0
2019-02-12T19:38:19.372Z,0
2019-02-12T19:41:47.293Z,0
2019-02-12T19:45:15.233Z,0
2019-02-12T19:48:43.170Z,0
2019-02-12T19:52:12.044Z,0
2019-02-12T19:55:39.973Z,0
2019-02-12T19:59:07.888Z,0
2019-02-12T20:02:35.829Z,0
2019-02-12T20:06:03.740Z,0
2019-02-12T20:09:31.644Z,0
2019-02-12T20:12:59.580Z,0
2019-02-12T20:16:28.447Z,0
2019-02-12T20:19:58.351Z,0
2019-02-12T20:23:26.284Z,0
2019-02-12T20:26:54.160Z,0
2019-02-12T20:30:22.106Z,0
2019-02-12T20:33:56.878Z,0
2019-02-12T20:37:21.941Z,0
2019-02-12T20:40:49.828Z,0
2019-02-12T20:44:17.766Z,0
2019-02-12T20:47:45.761Z,0
2019-02-12T20:51:13.720Z,0
2019-02-12T20:54:41.650Z,0
2019-02-12T20:58:09.610Z,0
2019-02-12T21:01:38.830Z,0
2019-02-12T21:05:07.224Z,0
2019-02-12T21:08:36.508Z,0
2019-02-12T21:12:04.465Z,0
2019-02-12T21:15:32.366Z,0
2019-02-12T21:19:00.361Z,0
2019-02-12T21:22:28.249Z,0
2019-02-12T21:25:56.151Z,0
2019-02-12T21:29:25.165Z,0
2019-02-12T21:32:53.046Z,0
2019-02-12T21:36:21.018Z,0
2019-02-12T21:39:48.893Z,0
2019-02-12T21:43:16.847Z,0
2019-02-12T21:46:45.834Z,0
2019-02-12T21:50:13.721Z,0
2019-02-12T21:53:41.615Z,0
2019-02-12T21:57:09.657Z,0
2019-02-12T22:00:37.496Z,0
2019-02-12T22:04:05.424Z,0
2019-02-12T22:07:33.363Z,0
2019-02-12T22:11:01.251Z,0
2019-02-12T22:14:29.226Z,0
2019-02-12T22:17:57.111Z,0
2019-02-12T22:21:25.033Z,0
2019-02-12T22:24:53.095Z,0
2019-02-12T22:28:21.983Z,0
2019-02-12T22:31:49.886Z,0
2019-02-12T22:35:18.763Z,0
2019-02-12T22:38:46.724Z,0
2019-02-12T22:42:14.623Z,0
2019-02-12T22:45:42.571Z,0
2019-02-12T22:49:10.568Z,0
2019-02-12T22:52:38.491Z,0
2019-02-12T22:56:06.399Z,0
2019-02-12T22:59:35.279Z,0
